EST,Max TemperatureF,Mean TemperatureF,Min TemperatureF,Max Dew PointF,MeanDew PointF,Min DewpointF,Max Humidity, Mean Humidity, Min Humidity, Max Sea Level PressureIn, Mean Sea Level PressureIn, Min Sea Level PressureIn, Max VisibilityMiles, Mean VisibilityMiles, Min VisibilityMiles, Max Wind SpeedMPH, Mean Wind SpeedMPH, Max Gust SpeedMPH,PrecipitationIn, CloudCover, Events, WindDirDegrees
2014-2-1,44,38,32,29,21,15,82,59,36,30.33,30.23,30.04,10,10,8,13,5,17,0.00,7,,127
2014-2-2,55,43,30,35,31,27,89,65,41,30.09,29.98,29.92,10,8,6,15,5,18,T,6,,346
2014-2-3,42,36,29,33,28,20,92,81,69,30.32,30.16,30.09,10,4,0,17,9,22,1.08,8,Fog-Rain-Snow,9
2014-2-4,36,31,25,24,19,15,72,64,56,30.48,30.39,30.27,10,10,9,14,6,16,0.00,5,,41
2014-2-5,34,32,29,30,28,23,92,82,72,30.25,29.89,29.64,10,4,0,24,11,30,1.18,8,Fog-Rain-Snow,32
2014-2-6,30,26,22,22,15,12,78,63,47,30.30,30.21,30.00,10,10,10,20,10,24,0.00,6,,318
2014-2-7,33,29,25,14,12,9,55,47,38,30.34,30.27,30.22,10,10,10,21,12,29,0.00,4,,267
2014-2-8,29,26,22,9,3,-2,46,38,29,30.35,30.26,30.15,10,10,10,17,8,24,0.00,6,,295
2014-2-9,29,25,21,23,13,2,84,60,36,30.20,30.08,30.00,10,7,0,17,8,21,0.10,6,Fog-Snow,259
2014-2-10,29,26,22,18,10,6,75,57,39,30.28,30.14,30.00,10,10,10,23,15,29,0.00,2,,310
2014-2-11,26,22,18,7,4,2,56,47,37,30.48,30.37,30.28,10,10,10,21,14,26,0.00,1,,319
2014-2-12,25,20,14,15,5,-1,65,55,44,30.58,30.47,30.30,10,10,10,15,9,18,0.00,5,,40
2014-2-13,36,30,24,34,27,18,92,80,68,30.29,29.69,28.99,10,3,0,36,19,44,1.68,8,Fog-Rain-Snow-Thunderstorm,40
2014-2-14,40,36,31,29,25,21,85,67,48,29.78,29.33,29.01,10,7,0,32,18,40,0.25,5,Fog-Rain-Snow,286
2014-2-15,37,33,28,27,25,15,78,65,52,29.78,29.67,29.58,10,5,0,31,13,38,0.05,7,Fog-Snow,7
2014-2-16,30,26,22,14,10,7,60,50,39,30.10,29.93,29.75,10,10,10,30,16,37,0.00,6,,301
2014-2-17,33,26,19,8,3,-3,57,41,25,30.38,30.31,30.13,10,10,10,24,9,32,0.00,2,,321
2014-2-18,40,33,25,32,21,3,96,65,34,30.33,30.11,29.95,10,6,0,26,10,36,0.15,7,Fog-Snow,55
2014-2-19,45,37,28,38,31,18,85,68,51,30.10,29.86,29.70,10,6,1,24,7,31,0.25,6,Rain,63
2014-2-20,50,43,35,34,27,21,59,47,34,30.25,30.15,30.04,10,8,2,24,8,31,0.02,6,Rain,9
2014-2-21,48,41,34,44,35,31,100,79,58,30.02,29.87,29.65,10,3,0,26,9,33,0.11,7,Fog-Rain,33
2014-2-22,55,47,38,33,23,16,73,48,22,30.05,29.99,29.93,10,10,10,26,12,36,0.00,2,,217
2014-2-23,54,47,39,29,26,24,59,46,32,30.02,29.94,29.84,10,10,10,28,6,33,T,6,Rain,265
2014-2-24,44,36,27,29,14,6,57,42,27,30.09,29.92,29.80,10,10,10,28,17,35,T,4,Rain,297
2014-2-25,33,29,24,11,9,5,50,43,36,30.09,30.02,29.93,10,10,10,25,13,37,0.00,4,,304
2014-2-26,32,27,21,21,9,-5,81,54,27,29.97,29.89,29.82,10,8,1,29,10,39,0.01,6,Snow,275
2014-2-27,33,24,15,12,1,-11,55,41,27,30.10,29.79,29.62,10,10,7,33,15,44,T,3,Snow,249
2014-2-28,24,17,10,-2,-7,-11,46,34,22,30.43,30.34,30.15,10,10,10,25,10,35,0.00,1,,307